createdAt,value
2018-10-21T00:01:52.802Z,4.83
2018-10-21T00:04:22.788Z,5.27
2018-10-21T00:06:52.739Z,4.93
2018-10-21T00:09:23.021Z,4.30
2018-10-21T00:11:53.023Z,4.57
2018-10-21T00:14:23.008Z,5.87
2018-10-21T00:16:52.987Z,5.33
2018-10-21T00:19:22.993Z,4.63
2018-10-21T00:21:52.952Z,4.93
2018-10-21T00:24:22.909Z,5.73
2018-10-21T00:26:52.849Z,4.50
2018-10-21T00:29:22.762Z,5.13
2018-10-21T00:31:52.789Z,4.67
2018-10-21T00:34:22.734Z,4.63
2018-10-21T00:36:52.946Z,5.30
2018-10-21T00:39:22.842Z,5.87
2018-10-21T00:41:52.840Z,5.27
2018-10-21T00:44:22.848Z,5.17
2018-10-21T00:46:52.794Z,5.50
2018-10-21T00:49:22.810Z,5.00
2018-10-21T00:51:52.775Z,5.40
2018-10-21T00:54:22.758Z,4.60
2018-10-21T00:56:52.685Z,4.70
2018-10-21T00:59:22.627Z,5.70
2018-10-21T01:01:52.590Z,4.60
2018-10-21T01:04:22.602Z,5.00
2018-10-21T01:06:52.628Z,5.43
2018-10-21T01:09:22.584Z,5.20
2018-10-21T01:11:52.595Z,4.87
2018-10-21T01:14:22.526Z,5.13
2018-10-21T01:16:52.439Z,5.10
2018-10-21T01:19:22.393Z,4.87
2018-10-21T01:21:52.383Z,4.70
2018-10-21T01:24:22.347Z,5.23
2018-10-21T01:26:52.274Z,5.33
2018-10-21T01:29:22.222Z,5.20
2018-10-21T01:31:52.149Z,4.60
2018-10-21T01:34:21.991Z,5.03
2018-10-21T01:36:52.118Z,4.87
2018-10-21T01:39:36.664Z,4.70
2018-10-21T01:42:06.547Z,4.93
2018-10-21T01:44:36.671Z,5.20
2018-10-21T01:47:07.118Z,4.70
2018-10-21T01:49:37.789Z,4.53
2018-10-21T01:52:07.739Z,4.87
2018-10-21T01:54:37.695Z,5.50
2018-10-21T01:57:07.687Z,4.77
2018-10-21T01:59:37.710Z,4.67
2018-10-21T02:02:07.699Z,5.00
2018-10-21T02:04:37.820Z,5.00
2018-10-21T02:07:07.771Z,4.37
2018-10-21T02:09:38.569Z,6.00
2018-10-21T02:12:08.560Z,5.63
2018-10-21T02:14:38.510Z,4.47
2018-10-21T02:17:08.491Z,4.93
2018-10-21T02:19:38.403Z,4.53
2018-10-21T02:22:08.370Z,4.87
2018-10-21T02:24:38.390Z,4.97
2018-10-21T02:27:08.453Z,4.97
2018-10-21T02:29:38.306Z,5.90
2018-10-21T02:32:08.308Z,4.53
2018-10-21T02:34:38.213Z,4.97
2018-10-21T02:37:08.266Z,4.30
2018-10-21T02:39:38.187Z,4.90
2018-10-21T02:42:08.112Z,4.97
2018-10-21T02:44:38.004Z,4.60
2018-10-21T02:47:14.377Z,5.10
2018-10-21T02:49:44.098Z,4.83
2018-10-21T02:52:14.433Z,4.93
2018-10-21T02:54:44.746Z,4.90
2018-10-21T02:57:15.246Z,4.90
2018-10-21T02:59:44.993Z,5.57
2018-10-21T03:02:14.952Z,5.50
2018-10-21T03:04:44.909Z,4.97
2018-10-21T03:07:14.933Z,4.70
2018-10-21T03:09:44.911Z,4.67
2018-10-21T03:12:14.895Z,5.40
2018-10-21T03:14:44.852Z,5.40
2018-10-21T03:17:14.839Z,4.77
2018-10-21T03:19:44.786Z,4.90
2018-10-21T03:22:14.772Z,5.27
2018-10-21T03:24:44.651Z,4.93
2018-10-21T03:27:14.639Z,5.07
2018-10-21T03:29:44.578Z,5.53
2018-10-21T03:32:14.594Z,5.03
2018-10-21T03:34:44.542Z,5.30
2018-10-21T03:37:14.483Z,4.70
2018-10-21T03:39:44.825Z,4.73
2018-10-21T03:42:14.796Z,5.83
2018-10-21T03:44:44.734Z,5.17
2018-10-21T03:47:14.727Z,5.43
2018-10-21T03:49:44.730Z,6.13
2018-10-21T03:52:14.763Z,5.00
2018-10-21T03:54:47.857Z,5.23
2018-10-21T03:57:17.790Z,5.13
2018-10-21T03:59:47.713Z,5.33
2018-10-21T04:02:17.678Z,5.10
2018-10-21T04:04:47.657Z,5.53
2018-10-21T04:07:17.604Z,5.13
2018-10-21T04:09:47.590Z,5.07
2018-10-21T04:12:17.629Z,6.10
2018-10-21T04:14:47.572Z,5.67
2018-10-21T04:17:17.517Z,6.00
2018-10-21T04:19:47.557Z,4.87
2018-10-21T04:22:17.657Z,6.03
2018-10-21T04:24:47.540Z,5.40
2018-10-21T04:27:17.490Z,5.40
2018-10-21T04:29:47.427Z,5.50
2018-10-21T04:32:17.385Z,5.33
2018-10-21T04:34:47.387Z,6.00
2018-10-21T04:37:33.847Z,5.03
2018-10-21T04:40:17.552Z,5.47
2018-10-21T04:42:48.089Z,5.43
2018-10-21T04:45:20.079Z,6.03
2018-10-21T04:47:50.071Z,5.60
2018-10-21T04:50:20.072Z,5.30
2018-10-21T04:52:50.009Z,4.77
2018-10-21T04:55:20.007Z,4.87
2018-10-21T04:57:49.943Z,5.77
2018-10-21T05:00:20.811Z,5.90
2018-10-21T05:02:50.775Z,5.40
2018-10-21T05:05:21.030Z,4.60
2018-10-21T05:07:51.063Z,5.63
2018-10-21T05:10:29.064Z,4.70
2018-10-21T05:12:58.805Z,5.00
2018-10-21T05:15:29.626Z,5.20
2018-10-21T05:17:59.719Z,5.50
2018-10-21T05:20:29.334Z,5.20
2018-10-21T05:22:59.536Z,5.57
2018-10-21T05:25:29.465Z,5.13
2018-10-21T05:27:59.667Z,5.47
2018-10-21T05:30:29.566Z,5.40
2018-10-21T05:32:59.557Z,5.10
2018-10-21T05:35:29.545Z,5.23
2018-10-21T05:37:59.596Z,5.67
2018-10-21T05:40:29.529Z,4.83
2018-10-21T05:42:59.504Z,4.80
2018-10-21T05:45:29.464Z,5.30
2018-10-21T05:47:59.453Z,5.93
2018-10-21T05:50:29.430Z,5.70
2018-10-21T05:52:59.430Z,5.53
2018-10-21T05:55:29.373Z,5.80
2018-10-21T05:57:59.403Z,5.57
2018-10-21T06:00:30.221Z,5.40
2018-10-21T06:03:00.205Z,5.63
2018-10-21T06:05:38.095Z,4.63
2018-10-21T06:08:08.237Z,5.07
2018-10-21T06:10:37.937Z,5.23
2018-10-21T06:13:08.222Z,5.13
2018-10-21T06:15:38.381Z,4.93
2018-10-21T06:18:12.506Z,5.63
2018-10-21T06:20:46.034Z,5.80
2018-10-21T06:23:16.010Z,5.17
2018-10-21T06:25:45.963Z,5.50
2018-10-21T06:28:15.934Z,5.40
2018-10-21T06:30:45.883Z,5.20
2018-10-21T06:33:15.835Z,5.10
2018-10-21T06:35:45.772Z,5.43
2018-10-21T06:38:15.728Z,4.50
2018-10-21T06:40:45.744Z,4.60
2018-10-21T06:43:15.714Z,4.70
2018-10-21T06:45:45.621Z,5.17
2018-10-21T06:48:15.494Z,5.20
2018-10-21T06:50:45.565Z,5.73
2018-10-21T06:53:16.088Z,5.67
2018-10-21T06:55:46.033Z,6.07
2018-10-21T06:58:15.990Z,6.23
2018-10-21T07:00:45.938Z,5.70
2018-10-21T07:03:15.923Z,5.47
2018-10-21T07:06:19.553Z,5.50
2018-10-21T07:08:49.962Z,5.00
2018-10-21T07:11:19.667Z,5.57
2018-10-21T07:13:49.854Z,5.63
2018-10-21T07:16:19.841Z,5.27
2018-10-21T07:18:49.896Z,5.07
2018-10-21T07:21:19.973Z,4.87
2018-10-21T07:23:49.930Z,5.67
2018-10-21T07:26:20.701Z,5.00
2018-10-21T07:28:50.739Z,4.90
2018-10-21T07:31:20.694Z,5.20
2018-10-21T07:33:50.835Z,5.07
2018-10-21T07:36:20.824Z,5.07
2018-10-21T07:38:50.813Z,5.77
2018-10-21T07:41:20.775Z,5.33
2018-10-21T07:43:50.768Z,5.87
2018-10-21T07:46:20.752Z,6.10
2018-10-21T07:48:50.856Z,6.00
2018-10-21T07:51:20.807Z,5.43
2018-10-21T07:53:50.825Z,6.67
2018-10-21T07:56:20.818Z,5.57
2018-10-21T07:58:50.850Z,6.10
2018-10-21T08:01:20.907Z,5.60
2018-10-21T08:03:51.161Z,5.10
2018-10-21T08:06:38.298Z,5.60
2018-10-21T08:09:11.518Z,5.43
2018-10-21T08:11:41.474Z,5.13
2018-10-21T08:14:11.745Z,5.47
2018-10-21T08:16:41.776Z,6.13
2018-10-21T08:19:11.844Z,5.27
2018-10-21T08:21:41.895Z,5.83
2018-10-21T08:24:12.212Z,6.03
2018-10-21T08:26:43.055Z,6.57
2018-10-21T08:29:13.063Z,6.13
2018-10-21T08:31:43.286Z,5.60
2018-10-21T08:34:13.395Z,5.37
2018-10-21T08:36:43.420Z,5.63
2018-10-21T08:39:13.429Z,5.70
2018-10-21T08:41:43.499Z,5.90
2018-10-21T08:44:13.491Z,5.60
2018-10-21T08:46:43.640Z,7.37
2018-10-21T08:49:13.616Z,8.33
2018-10-21T08:51:43.608Z,5.70
2018-10-21T08:54:13.618Z,5.60
2018-10-21T08:56:43.650Z,5.33
2018-10-21T08:59:13.675Z,5.17
2018-10-21T09:01:43.661Z,4.80
2018-10-21T09:04:13.773Z,5.47
2018-10-21T09:06:43.802Z,4.93
2018-10-21T09:09:13.946Z,4.87
2018-10-21T09:11:43.947Z,4.60
2018-10-21T09:14:14.107Z,5.30
2018-10-21T09:16:44.232Z,4.80
2018-10-21T09:19:14.321Z,5.37
2018-10-21T09:21:44.276Z,5.40
2018-10-21T09:24:14.287Z,5.80
2018-10-21T09:26:44.289Z,5.40
2018-10-21T09:29:14.338Z,6.40
2018-10-21T09:31:44.407Z,5.90
2018-10-21T09:34:14.669Z,5.50
2018-10-21T09:36:44.615Z,5.57
2018-10-21T09:39:15.505Z,5.43
2018-10-21T09:41:45.485Z,5.57
2018-10-21T09:44:15.514Z,5.73
2018-10-21T09:46:45.590Z,5.57
2018-10-21T09:49:15.667Z,5.60
2018-10-21T09:51:45.647Z,4.90
2018-10-21T09:54:15.684Z,5.20
2018-10-21T09:56:45.717Z,4.70
2018-10-21T09:59:15.772Z,5.97
2018-10-21T10:01:50.698Z,7.50
2018-10-21T10:04:20.864Z,5.30
2018-10-21T10:06:50.798Z,8.80
2018-10-21T10:09:20.869Z,6.80
2018-10-21T10:11:50.840Z,5.10
2018-10-21T10:14:20.852Z,4.73
2018-10-21T10:16:50.798Z,3.97
2018-10-21T10:19:20.819Z,3.90
2018-10-21T10:21:50.820Z,3.23
2018-10-21T10:24:20.751Z,2.83
2018-10-21T10:26:50.742Z,3.27
2018-10-21T10:29:20.813Z,2.83
2018-10-21T10:31:50.815Z,3.10
2018-10-21T10:34:20.878Z,3.53
2018-10-21T10:36:50.943Z,4.00
2018-10-21T10:39:20.967Z,3.80
2018-10-21T10:41:51.054Z,4.00
2018-10-21T10:44:21.029Z,4.10
2018-10-21T10:46:51.017Z,4.00
2018-10-21T10:49:21.023Z,3.53
2018-10-21T10:51:51.072Z,4.00
2018-10-21T10:54:21.093Z,3.67
2018-10-21T10:56:51.154Z,4.03
2018-10-21T10:59:21.240Z,3.27
2018-10-21T11:01:51.268Z,3.10
2018-10-21T11:04:21.306Z,3.07
2018-10-21T11:06:51.333Z,3.03
2018-10-21T11:09:21.307Z,2.83
2018-10-21T11:11:51.323Z,2.87
2018-10-21T11:14:21.318Z,3.10
2018-10-21T11:16:51.368Z,2.67
2018-10-21T11:19:25.289Z,3.07
2018-10-21T11:21:55.545Z,2.70
2018-10-21T11:24:25.490Z,2.77
2018-10-21T11:26:55.539Z,2.53
2018-10-21T11:29:28.441Z,2.60
2018-10-21T11:31:58.463Z,2.60
2018-10-21T11:34:28.512Z,2.73
2018-10-21T11:36:58.495Z,2.60
2018-10-21T11:39:28.686Z,2.73
2018-10-21T11:41:58.716Z,3.27
2018-10-21T11:44:28.752Z,3.00
2018-10-21T11:46:58.816Z,2.90
2018-10-21T11:49:28.850Z,2.63
2018-10-21T11:51:58.895Z,2.50
2018-10-21T11:54:28.869Z,2.80
2018-10-21T11:56:58.959Z,2.70
2018-10-21T11:59:29.059Z,2.30
2018-10-21T12:01:59.131Z,1.97
2018-10-21T12:04:29.261Z,1.83
2018-10-21T12:06:59.331Z,2.10
2018-10-21T12:09:29.294Z,2.33
2018-10-21T12:11:59.314Z,2.10
2018-10-21T12:14:29.339Z,1.60
2018-10-21T12:16:59.337Z,1.77
2018-10-21T12:19:29.293Z,1.40
2018-10-21T12:21:59.371Z,1.50
2018-10-21T12:24:29.278Z,1.60
2018-10-21T12:26:59.360Z,1.20
2018-10-21T12:29:29.389Z,1.80
2018-10-21T12:31:59.393Z,1.50
2018-10-21T12:34:29.411Z,2.10
2018-10-21T12:36:59.852Z,2.27
2018-10-21T12:39:29.799Z,2.30
2018-10-21T12:41:59.887Z,2.10
2018-10-21T12:44:29.931Z,1.90
2018-10-21T12:46:59.991Z,1.50
2018-10-21T12:49:29.991Z,1.60
2018-10-21T12:52:00.023Z,1.30
2018-10-21T12:54:30.099Z,1.37
2018-10-21T12:57:00.064Z,1.70
2018-10-21T12:59:30.396Z,1.23
2018-10-21T13:02:00.362Z,1.30
2018-10-21T13:04:30.391Z,1.50
2018-10-21T13:07:00.524Z,1.40
2018-10-21T13:09:30.539Z,1.57
2018-10-21T13:12:00.530Z,1.27
2018-10-21T13:14:30.538Z,1.30
2018-10-21T13:17:00.625Z,1.40
2018-10-21T13:19:30.669Z,1.27
2018-10-21T13:22:00.782Z,1.43
2018-10-21T13:24:30.775Z,1.40
2018-10-21T13:27:00.826Z,1.70
2018-10-21T13:29:30.846Z,1.63
2018-10-21T13:32:00.886Z,1.27
2018-10-21T13:34:30.943Z,1.43
2018-10-21T13:37:01.027Z,1.20
2018-10-21T13:39:31.130Z,1.30
2018-10-21T13:42:01.173Z,1.60
2018-10-21T13:44:31.169Z,1.37
2018-10-21T13:47:01.276Z,1.30
2018-10-21T13:49:31.337Z,1.40
2018-10-21T13:52:01.531Z,1.50
2018-10-21T13:54:31.430Z,1.40
2018-10-21T13:57:01.409Z,1.80
2018-10-21T13:59:31.727Z,1.60
2018-10-21T14:02:01.780Z,1.63
2018-10-21T14:04:31.827Z,1.70
2018-10-21T14:07:02.002Z,1.80
2018-10-21T14:09:31.963Z,1.40
2018-10-21T14:12:02.039Z,1.40
2018-10-21T14:14:32.047Z,1.40
2018-10-21T14:17:02.153Z,1.87
2018-10-21T14:19:32.228Z,1.60
2018-10-21T14:22:02.312Z,1.50
2018-10-21T14:24:32.355Z,1.50
2018-10-21T14:27:02.407Z,1.37
2018-10-21T14:29:32.703Z,1.50
2018-10-21T14:32:02.723Z,1.20
2018-10-21T14:34:32.722Z,1.20
2018-10-21T14:37:02.787Z,1.30
2018-10-21T14:39:32.853Z,1.40
2018-10-21T14:42:03.014Z,1.60
2018-10-21T14:44:33.002Z,1.50
2018-10-21T14:47:03.052Z,1.70
2018-10-21T14:49:33.086Z,1.80
2018-10-21T14:52:03.069Z,1.60
2018-10-21T14:54:33.106Z,1.67
2018-10-21T14:57:03.181Z,1.50
2018-10-21T14:59:33.166Z,1.37
2018-10-21T15:02:03.241Z,1.83
2018-10-21T15:04:33.253Z,1.20
2018-10-21T15:07:03.231Z,1.50
2018-10-21T15:09:34.541Z,1.47
2018-10-21T15:12:04.895Z,1.13
2018-10-21T15:14:34.851Z,1.40
2018-10-21T15:17:04.932Z,1.13
2018-10-21T15:19:35.034Z,1.00
2018-10-21T15:22:05.458Z,1.33
2018-10-21T15:24:35.596Z,1.23
2018-10-21T15:27:05.853Z,1.20
2018-10-21T15:29:35.948Z,1.23
2018-10-21T15:32:06.622Z,1.20
2018-10-21T15:34:36.841Z,1.17
2018-10-21T15:37:06.984Z,1.17
2018-10-21T15:39:37.215Z,1.30
2018-10-21T15:42:07.444Z,1.10
2018-10-21T15:44:37.436Z,1.10
2018-10-21T15:47:07.675Z,1.20
2018-10-21T15:49:37.711Z,1.00
2018-10-21T15:52:07.674Z,1.00
2018-10-21T15:54:37.775Z,1.20
2018-10-21T15:57:07.843Z,1.13
2018-10-21T15:59:37.923Z,1.10
2018-10-21T16:02:08.117Z,1.20
2018-10-21T16:04:38.090Z,0.90
2018-10-21T16:07:08.086Z,0.80
2018-10-21T16:09:38.187Z,0.97
2018-10-21T16:12:08.161Z,0.97
2018-10-21T16:14:38.275Z,1.10
2018-10-21T16:17:08.184Z,1.17
2018-10-21T16:19:38.252Z,1.10
2018-10-21T16:22:08.560Z,1.00
2018-10-21T16:24:38.532Z,1.13
2018-10-21T16:27:08.625Z,1.10
2018-10-21T16:29:38.709Z,1.20
2018-10-21T16:32:08.940Z,1.10
2018-10-21T16:34:38.802Z,1.10
2018-10-21T16:37:08.789Z,1.33
2018-10-21T16:39:38.829Z,1.07
2018-10-21T16:42:08.843Z,1.10
2018-10-21T16:44:38.910Z,1.03
2018-10-21T16:47:08.992Z,1.10
2018-10-21T16:49:39.047Z,1.40
2018-10-21T16:52:09.082Z,1.30
2018-10-21T16:54:39.206Z,1.00
2018-10-21T16:57:09.192Z,0.90
2018-10-21T16:59:39.186Z,0.87
2018-10-21T17:02:09.115Z,1.13
2018-10-21T17:04:39.130Z,1.10
2018-10-21T17:07:09.225Z,1.03
2018-10-21T17:09:39.483Z,1.40
2018-10-21T17:12:09.344Z,1.23
2018-10-21T17:14:39.398Z,1.03
2018-10-21T17:17:09.564Z,1.20
2018-10-21T17:19:39.597Z,1.07
2018-10-21T17:22:09.693Z,1.30
2018-10-21T17:24:39.642Z,1.10
2018-10-21T17:27:09.665Z,1.87
2018-10-21T17:29:39.735Z,1.60
2018-10-21T17:32:09.875Z,1.67
2018-10-21T17:34:39.943Z,1.37
2018-10-21T17:37:10.146Z,1.50
2018-10-21T17:39:40.120Z,1.43
2018-10-21T17:42:10.303Z,1.50
2018-10-21T17:44:40.372Z,1.60
2018-10-21T17:47:10.485Z,1.20
2018-10-21T17:49:40.603Z,1.27
2018-10-21T17:52:10.748Z,1.77
2018-10-21T17:54:40.747Z,1.53
2018-10-21T17:57:10.876Z,1.50
2018-10-21T17:59:40.962Z,1.50
2018-10-21T18:02:11.075Z,1.23
2018-10-21T18:04:41.143Z,1.30
2018-10-21T18:07:11.317Z,1.50
2018-10-21T18:09:41.278Z,1.20
2018-10-21T18:12:11.469Z,1.40
2018-10-21T18:14:41.572Z,1.83
2018-10-21T18:17:11.635Z,1.37
2018-10-21T18:19:41.688Z,1.57
2018-10-21T18:22:11.776Z,1.53
2018-10-21T18:24:41.786Z,1.50
2018-10-21T18:27:11.935Z,1.60
2018-10-21T18:29:42.094Z,1.60
2018-10-21T18:32:12.200Z,1.80
2018-10-21T18:34:42.377Z,1.40
2018-10-21T18:37:12.457Z,1.70
2018-10-21T18:39:42.555Z,1.70
2018-10-21T18:42:12.632Z,1.73
2018-10-21T18:44:42.740Z,1.87
2018-10-21T18:47:13.073Z,1.80
2018-10-21T18:49:43.353Z,1.67
2018-10-21T18:52:13.594Z,1.70
2018-10-21T18:54:44.071Z,1.60
2018-10-21T18:57:14.608Z,1.57
2018-10-21T18:59:44.909Z,1.50
2018-10-21T19:02:15.153Z,1.77
2018-10-21T19:04:45.768Z,1.50
2018-10-21T19:07:16.288Z,1.60
2018-10-21T19:09:46.370Z,1.60
2018-10-21T19:12:17.311Z,1.70
2018-10-21T19:14:47.601Z,1.57
2018-10-21T19:17:17.703Z,1.70
2018-10-21T19:19:47.952Z,1.77
2018-10-21T19:22:18.228Z,1.70
2018-10-21T19:24:48.409Z,1.70
2018-10-21T19:27:18.560Z,1.73
2018-10-21T19:29:48.765Z,1.80
2018-10-21T19:32:18.882Z,1.90
2018-10-21T19:34:49.038Z,1.77
2018-10-21T19:37:19.091Z,1.60
2018-10-21T19:39:49.204Z,1.90
2018-10-21T19:42:19.247Z,1.90
2018-10-21T19:44:49.366Z,2.30
2018-10-21T19:47:19.363Z,1.90
2018-10-21T19:49:49.472Z,2.00
2018-10-21T19:52:19.529Z,1.90
2018-10-21T19:54:49.554Z,2.10
2018-10-21T19:57:19.698Z,2.20
2018-10-21T19:59:49.784Z,2.10
2018-10-21T20:02:19.911Z,2.30
2018-10-21T20:04:50.081Z,2.20
2018-10-21T20:07:20.111Z,1.80
2018-10-21T20:09:50.207Z,1.97
2018-10-21T20:12:20.214Z,2.27
2018-10-21T20:14:50.342Z,1.60
2018-10-21T20:17:20.372Z,2.20
2018-10-21T20:19:50.499Z,2.03
2018-10-21T20:22:20.560Z,1.73
2018-10-21T20:24:50.610Z,1.80
2018-10-21T20:27:20.749Z,1.80
2018-10-21T20:29:50.788Z,2.00
2018-10-21T20:32:20.843Z,1.83
2018-10-21T20:34:50.903Z,1.90
2018-10-21T20:37:20.965Z,1.67
2018-10-21T20:39:51.207Z,1.73
2018-10-21T20:42:21.216Z,1.67
2018-10-21T20:44:51.240Z,1.77
2018-10-21T20:47:21.760Z,1.83
2018-10-21T20:49:51.784Z,1.60
2018-10-21T20:52:21.763Z,2.00
2018-10-21T20:54:51.749Z,1.57
2018-10-21T20:57:21.740Z,1.67
2018-10-21T20:59:51.715Z,1.70
2018-10-21T21:02:21.772Z,1.80
2018-10-21T21:04:51.842Z,1.83
2018-10-21T21:07:21.860Z,2.00
2018-10-21T21:09:52.006Z,1.77
2018-10-21T21:12:22.154Z,2.27
2018-10-21T21:14:52.257Z,2.03
2018-10-21T21:17:22.343Z,1.70
2018-10-21T21:19:52.401Z,1.93
2018-10-21T21:22:22.371Z,1.73
2018-10-21T21:24:52.354Z,2.13
2018-10-21T21:27:22.400Z,2.20
2018-10-21T21:29:52.408Z,2.00
2018-10-21T21:32:22.476Z,2.20
2018-10-21T21:34:52.503Z,1.80
2018-10-21T21:37:22.534Z,2.17
2018-10-21T21:39:52.666Z,2.10
2018-10-21T21:42:22.670Z,2.00
2018-10-21T21:44:52.737Z,1.90
2018-10-21T21:47:24.878Z,1.90
2018-10-21T21:49:54.929Z,2.20
2018-10-21T21:52:25.007Z,1.83
2018-10-21T21:54:55.010Z,2.00
2018-10-21T21:57:25.041Z,2.57
2018-10-21T21:59:55.087Z,2.10
2018-10-21T22:02:25.157Z,2.10
2018-10-21T22:04:55.280Z,1.87
2018-10-21T22:07:25.327Z,1.90
2018-10-21T22:09:55.393Z,1.80
2018-10-21T22:12:25.548Z,2.27
2018-10-21T22:14:55.769Z,1.80
2018-10-21T22:17:25.834Z,1.87
2018-10-21T22:19:55.875Z,1.83
2018-10-21T22:22:25.883Z,1.93
2018-10-21T22:24:55.916Z,2.00
2018-10-21T22:27:25.953Z,1.67
2018-10-21T22:29:56.040Z,1.97
2018-10-21T22:32:26.088Z,2.20
2018-10-21T22:34:56.105Z,1.90
2018-10-21T22:37:26.155Z,2.20
2018-10-21T22:39:56.172Z,2.03
2018-10-21T22:42:26.327Z,2.37
2018-10-21T22:44:56.280Z,2.10
2018-10-21T22:47:27.129Z,1.83
2018-10-21T22:49:57.145Z,1.90
2018-10-21T22:52:27.198Z,1.90
2018-10-21T22:54:57.218Z,2.30
2018-10-21T22:57:27.272Z,1.90
2018-10-21T22:59:57.323Z,2.00
2018-10-21T23:02:27.310Z,2.10
2018-10-21T23:04:57.369Z,2.13
2018-10-21T23:07:27.629Z,1.53
2018-10-21T23:09:57.701Z,1.90
2018-10-21T23:12:27.666Z,2.00
2018-10-21T23:14:57.724Z,2.30
2018-10-21T23:17:27.728Z,2.10
2018-10-21T23:19:57.849Z,2.27
2018-10-21T23:22:27.922Z,1.87
2018-10-21T23:24:58.045Z,2.03
2018-10-21T23:27:28.163Z,1.90
2018-10-21T23:29:58.214Z,1.80
2018-10-21T23:32:28.338Z,1.97
2018-10-21T23:34:58.338Z,2.20
2018-10-21T23:37:28.398Z,2.07
2018-10-21T23:39:58.533Z,2.07
2018-10-21T23:42:28.483Z,2.27
2018-10-21T23:44:58.567Z,1.97
2018-10-21T23:47:28.634Z,2.30
2018-10-21T23:49:58.703Z,2.03
2018-10-21T23:52:28.820Z,2.17
2018-10-21T23:54:58.883Z,1.87
2018-10-21T23:57:28.993Z,1.93
2018-10-21T23:59:59.066Z,2.03
